NCAR-RAP Real-Time Weather Data

Output produced by METARs form (23 February 2020  01:56 UTC)
found at http://weather.rap.ucar.edu/surface/
 
KTLH 230153Z 00000KT 10SM CLR 05/M01 A3035 RMK AO2 SLP277 T00501006
KTLH 230053Z 03004KT 10SM CLR 09/M03 A3034 RMK AO2 SLP274 T00891033
KTLH 222353Z 02004KT 10SM FEW010 12/M05 A3033 RMK AO2 SLP271 FU FEW010 T01221050 10161 20122 55001
KTLH 222253Z 02006KT 10SM FEW010 14/M06 A3033 RMK AO2 SLP270 FU FEW010 T01441061
KTLH 222153Z 02008KT 10SM FEW010 16/M08 A3032 RMK AO2 SLP266 FU FEW010 T01611078
KTLH 222053Z 01007KT 340V060 10SM FEW010 16/M07 A3034 RMK AO2 SLP271 FU FEW010 T01561072 56028
KTLH 221953Z 06005KT 10SM FEW010 15/M07 A3035 RMK AO2 SLP278 FU FEW010 T01501072
KTLH 221853Z 06007KT 10SM FEW010 14/M06 A3038 RMK AO2 SLP286 FU FEW010 T01391061
KTLH 221758Z VRB05KT 10SM FEW010 FEW250 13/M07 A3042 RMK AO2 FU FEW010 T01281067
KTLH 221753Z 07008KT 020V180 10SM FEW150 13/M06 A3042 RMK AO2 SLP299 FU DSNT S T01331061 10133 20011 58020
KTLH 221653Z 08007KT 10SM FEW150 11/M07 A3045 RMK AO2 SLP309 FU DSNT S T01061072
KTLH 221553Z 06008KT 10SM FEW150 08/M06 A3047 RMK AO2 SLP319 FU DSNT S T00831061
KTLH 221453Z 07009KT 10SM FEW150 07/M04 A3048 RMK AO2 SLP320 T00671039 51016
KTLH 221353Z 06007KT 10SM FEW150 04/M04 A3047 RMK AO2 SLP319 T00391044
KTLH 221253Z 02005KT 10SM FEW150 02/M04 A3046 RMK AO2 SLP315 T00171039
KTLH 221153Z 03004KT 10SM FEW250 01/M03 A3043 RMK AO2 SLP304 T00111033 10039 20011 53010
KTLH 221053Z 04003KT 10SM CLR 01/M03 A3041 RMK AO2 SLP297 T00111028
KTLH 220953Z AUTO 03004KT 10SM CLR 02/M03 A3040 RMK AO2 SLP296 T00221028
KTLH 220853Z AUTO 06005KT 10SM CLR 03/M03 A3040 RMK AO2 SLP293 T00331028 55012
KTLH 220753Z AUTO 07006KT 10SM CLR 04/M02 A3039 RMK AO2 SLP292 T00391022
KTLH 220653Z AUTO 02003KT 10SM CLR 02/M01 A3042 RMK AO2 SLP300 T00221006
KTLH 220553Z AUTO 01003KT 10SM CLR 04/00 A3043 RMK AO2 SLP305 T00390000 10094 20039 58006
KTLH 220453Z AUTO 35004KT 10SM CLR 06/M02 A3044 RMK AO2 SLP309 T00561017 401280056
KTLH 220353Z 02004KT 10SM CLR 07/M02 A3046 RMK AO2 SLP314 T00671017
KTLH 220253Z 02003KT 10SM CLR 07/M01 A3045 RMK AO2 SLP311 T00671006 51022
KTLH 220153Z 02003KT 10SM CLR 07/M01 A3043 RMK AO2 SLP304 T00721006
KTLH 220053Z 01004KT 10SM CLR 08/M01 A3041 RMK AO2 SLP299 T00831006
KTLH 212353Z 01007KT 10SM CLR 09/M01 A3038 RMK AO2 SLP288 T00941011 10128 20094 53014
KTLH 212253Z 02011G17KT 10SM CLR 11/M02 A3036 RMK AO2 SLP281 T01061017
KTLH 212153Z 36013G19KT 10SM FEW049 12/M01 A3035 RMK AO2 SLP276 T01171011
KTLH 212053Z 02012G19KT 10SM FEW048 12/M01 A3034 RMK AO2 PK WND 35026/2041 SLP275 T01171011 56014
KTLH 211953Z 01010G18KT 10SM SCT048 12/M01 A3035 RMK AO2 SLP275 T01221006
KTLH 211853Z 02011G19KT 10SM SCT043 12/00 A3036 RMK AO2 SLP280 T01170000
KTLH 211753Z 01012G21KT 10SM SCT038 11/00 A3038 RMK AO2 SLP288 T01060000 10106 20067 58001
KTLH 211653Z 04013G20KT 10SM SCT035 09/00 A3040 RMK AO2 SLP293 T00890000
KTLH 211602Z 03013G20KT 10SM SCT028 08/00 A3040 RMK AO2 T00830000
KTLH 211553Z 03012G18KT 10SM BKN028 08/01 A3040 RMK AO2 SLP293 T00830006
KTLH 211453Z 05012G20KT 10SM OVC026 07/01 A3039 RMK AO2 SLP290 BINOVC T00720006 51031
KTLH 211353Z 02011G21KT 10SM OVC025 07/01 A3037 RMK AO2 SLP282 BINOVC T00670006
KTLH 211253Z 02008G19KT 10SM OVC025 07/02 A3033 RMK AO2 SLP270 T00670017
KTLH 211153Z 01007G20KT 10SM OVC019 07/03 A3030 RMK AO2 SLP258 60000 70047 T00720028 10078 20067 53024
KTLH 211053Z 02014G20KT 10SM OVC017 07/03 A3027 RMK AO2 SLP248 T00720028
KTLH 211004Z 01010G20KT 10SM OVC016 07/04 A3025 RMK AO2 T00720039
KTLH 210953Z 01008KT 10SM OVC014 07/04 A3025 RMK AO2 SLP242 T00720039
KTLH 210901Z 02013G19KT 10SM OVC016 07/04 A3023 RMK AO2 T00670039
KTLH 210853Z 02011G19KT 360V060 10SM BKN014 OVC019 07/04 A3023 RMK AO2 RAB11E21 SLP234 P0000 60000 T00670039 50008
KTLH 210844Z 02010G19KT 10SM BKN017 OVC021 07/04 A3023 RMK AO2 RAB11E21 P0000 T00720039
KTLH 210753Z 01011KT 10SM OVC014 07/05 A3023 RMK AO2 SLP236 T00720050
KTLH 210709Z 01011G22KT 10SM OVC011 07/04 A3023 RMK AO2 T00720044
KTLH 210653Z 36011G18KT 10SM OVC009 07/06 A3022 RMK AO2 SLP234 T00720056
KTLH 210644Z 36012KT 10SM OVC009 07/06 A3021 RMK AO2 T00720056
KTLH 210634Z 36012KT 10SM OVC010 07/06 A3021 RMK AO2 CIG 008V013 T00720056
KTLH 210553Z 01016G20KT 10SM OVC009 08/06 A3020 RMK AO2 SLP226 60018 T00780056 10111 20078 51003
KTLH 210453Z 02009G22KT 10SM OVC011 08/06 A3020 RMK AO2 SLP226 T00780061 402110078
KTLH 210450Z 02013G22KT 10SM OVC011 08/06 A3020 RMK AO2
KTLH 210353Z 02008G16KT 8SM OVC009 08/07 A3019 RMK AO2 RAE36 SLP223 P0001 T00830067
KTLH 210253Z 01008KT 6SM -RA BR OVC009 08/07 A3016 RMK AO2 SLP213 P0001 60017 T00830072 51027